LIBDLGKR

Guest
Details From LIBD - Bari Palese Macchie
To LGKR - IOANNIS KAPODISTRIAS INTL
Flight Number -
Tags generated
Created
Modified
Stats Distance 171 nm / 317 km
Max Altitude 17,400 ft / 5,304 m
Waypoints 3
Social Downloads 5
Likes 0
Share VATSIM

Download

Looking for another format? Having issues loading an existing format? Contact us
Advertisement - Login to hide

Notes

Basic altitude profile: - Ascent Rate: 2500ft/min - Ascent Speed: 250kts - Cruise Altitude: 18000ft - Cruise Speed: 320kts - Descent Rate: 2000ft/min - Descent Speed: 250kts Options: - Use NATs: yes - Use PACOTS: yes - Use low airways: yes - Use high airways: yes

Route

LIBD ORSOM LGKR

ID Type Via Altitude Latitude Longitude Leg Dist Tot Dist Heading (true) Name
O LIBD APT - 0 ft / 0 m 41.13787˚ 16.75832˚ - 0 nm - Bari Palese Macchie
ORSOM FIX - 17,400 ft / 5,304 m 40.36583˚ 18.44667˚ 89 nm 89 nm 121° / 122° -
O LGKR APT - 0 ft / 0 m 39.60178˚ 19.91191˚ 81 nm 171 nm 124° / 125° IOANNIS KAPODISTRIAS INTL

Altitude Profile

Advertisement - Login to hide

Weather


0- 5 10 15 20 25 30 35+ Temperature / ° C

Clouds and Precipitation
Forecast for 2018-06-23 06:00 UTC. Updated an hour ago

Ground ~20,000 ft ~40,000 ft Winds

LIBD

Details ICAO LIBD (BRI)
Name Bari Palese Macchie
Region Italy
Timezone Europe/Rome (UTC+2.0)
Stats Elevation 177 ft / 54 m (AMSL)
Location 41.137865° 16.758318°
Runways 1
Magnetic Variation 3.791° E

METAR

LIBD 230420Z 01011KT 9999 SCT030 21/15 Q1014

Decode

TAF

TAF LIBD 222300Z 2300/2324 35012KT CAVOK TEMPO 2300/2306 4000 TSRA= TAF LIBP 222300Z 2300/2324 35008KT 9999 SCT030 BECMG 2310/2312 05010KT BECMG 2316/2318 VRB05KT

Decode

Departure Runways

ID Width Length Bearing (true) Bearing (mag) Surface Threshold Offset Overrun Length
07 148 ft / 45 m 9,262 ft / 2,823 m 69.39° 65.60° Asphalt 1,257 ft / 383 m 0 ft / 0 m
25 148 ft / 45 m 9,262 ft / 2,823 m 249.42° 245.63° Asphalt 0 ft / 0 m 194 ft / 59 m

LGKR

Details ICAO LGKR (CFU)
Name IOANNIS KAPODISTRIAS INTL
Region Greece
Timezone Europe/Athens (UTC+3.0)
Stats Elevation 6 ft / 2 m (AMSL)
Location 39.601779° 19.911908°
Runways 1
Magnetic Variation 4.150° E

METAR

LGKR 230420Z 27003KT 9999 -RA FEW018TCU SCT035 BKN080 20/19 Q1012 TEMPO FEW018CB

Decode

TAF

TAF LGKR 222300Z 2300/2324 26005KT 9999 FEW015 SCT080 PROB40 TEMPO 2309/2318 5000 RA SCT020 BKN080 PROB30 TEMPO 2310/2316 5000 TSRA FEW018CB BKN030 BECMG 2304/2306 14010KT BECMG 2316/2318 32010KT

Decode

Destination Runways

ID Width Length Bearing (true) Bearing (mag) Surface Threshold Offset Overrun Length
17 148 ft / 45 m 7,815 ft / 2,382 m 168.81° 164.66° Asphalt 1,348 ft / 411 m 0 ft / 0 m
35 148 ft / 45 m 7,815 ft / 2,382 m 348.81° 344.66° Asphalt 213 ft / 65 m 0 ft / 0 m

Popular Alternatives